TimeEST,TemperatureF,Dew PointF,Humidity,Sea Level PressureIn,VisibilityMPH,Wind Direction,Wind SpeedMPH,Gust SpeedMPH,PrecipitationIn,Events,Conditions,WindDirDegrees,DateUTC
12:52 AM,25.0,10.0,53,29.96,10.0,West,6.9,-,N/A,,Overcast,280,2013-02-05 05:52:00
1:52 AM,25.0,9.0,51,29.98,10.0,West,5.8,-,N/A,,Overcast,270,2013-02-05 06:52:00
2:52 AM,25.0,10.0,53,29.99,10.0,West,3.5,-,N/A,,Overcast,270,2013-02-05 07:52:00
3:52 AM,25.0,10.0,53,29.99,10.0,WNW,6.9,-,N/A,,Overcast,290,2013-02-05 08:52:00
4:52 AM,25.0,10.9,55,30.00,10.0,WNW,3.5,-,N/A,,Overcast,290,2013-02-05 09:52:00
5:52 AM,25.0,10.9,55,30.00,10.0,Calm,Calm,-,N/A,,Overcast,0,2013-02-05 10:52:00
6:52 AM,26.1,12.0,55,30.01,10.0,Calm,Calm,-,N/A,,Overcast,0,2013-02-05 11:52:00
7:52 AM,26.1,12.0,55,30.02,10.0,Calm,Calm,-,N/A,,Overcast,0,2013-02-05 12:52:00
8:52 AM,27.0,12.9,56,30.03,10.0,Calm,Calm,-,N/A,,Overcast,0,2013-02-05 13:52:00
9:52 AM,27.0,15.1,61,30.04,6.0,Variable,4.6,-,0.00,Snow,Light Snow,0,2013-02-05 14:52:00
11:52 AM,26.1,18.0,71,30.03,5.0,North,3.5,-,0.00,Snow,Light Snow,360,2013-02-05 16:52:00
12:52 PM,26.1,19.0,75,30.01,8.0,Variable,3.5,-,0.00,Snow,Light Snow,0,2013-02-05 17:52:00
2:52 PM,28.0,21.0,75,30.00,10.0,NE,5.8,-,N/A,,Overcast,40,2013-02-05 19:52:00
3:20 PM,26.6,21.2,80,29.98,2.0,NE,4.6,-,0.00,Snow,Light Snow,50,2013-02-05 20:20:00
3:39 PM,26.6,21.2,80,29.98,6.0,NE,5.8,-,0.01,Snow,Light Snow,50,2013-02-05 20:39:00
3:52 PM,27.0,23.0,85,29.97,10.0,NE,5.8,-,0.01,,Overcast,50,2013-02-05 20:52:00
4:35 PM,28.4,23.0,80,29.95,9.0,ENE,5.8,-,0.00,,Overcast,60,2013-02-05 21:35:00
4:52 PM,28.0,23.0,81,29.96,10.0,ENE,6.9,-,0.00,,Overcast,70,2013-02-05 21:52:00
5:35 PM,28.4,23.0,80,29.95,10.0,ENE,5.8,-,N/A,,Overcast,60,2013-02-05 22:35:00
5:52 PM,30.0,23.0,75,29.96,10.0,ENE,5.8,-,N/A,,Overcast,70,2013-02-05 22:52:00
7:02 PM,28.4,26.6,93,29.95,1.8,NE,4.6,-,0.01,Snow,Light Snow,40,2013-02-06 00:02:00
7:10 PM,28.4,26.6,93,29.95,2.0,NE,3.5,-,0.01,Snow,Light Snow,40,2013-02-06 00:10:00
7:27 PM,30.2,26.6,86,29.95,1.8,ENE,3.5,-,0.01,Snow,Light Snow,60,2013-02-06 00:27:00
7:37 PM,30.2,28.4,93,29.95,2.5,ENE,4.6,-,0.02,Snow,Light Snow,60,2013-02-06 00:37:00
7:52 PM,30.0,28.0,92,29.95,1.8,ENE,4.6,-,0.02,Snow,Light Snow,60,2013-02-06 00:52:00
8:27 PM,30.2,28.4,93,29.94,2.5,ENE,5.8,-,0.01,Snow,Light Snow,70,2013-02-06 01:27:00
8:42 PM,30.2,28.4,93,29.94,5.0,ENE,5.8,-,0.01,Snow,Light Snow,70,2013-02-06 01:42:00
8:52 PM,30.9,28.9,92,29.95,4.0,ENE,5.8,-,0.01,Snow,Light Snow,70,2013-02-06 01:52:00
9:15 PM,32.0,28.4,87,29.93,7.0,East,5.8,-,0.00,Snow,Light Snow,80,2013-02-06 02:15:00
9:35 PM,32.0,28.4,87,29.94,4.0,NE,3.5,-,0.00,Snow,Light Snow,50,2013-02-06 02:35:00
9:52 PM,32.0,28.9,88,29.94,3.0,NE,3.5,-,0.01,Snow,Light Snow,40,2013-02-06 02:52:00
10:09 PM,32.0,30.2,93,29.93,3.0,NNE,3.5,-,0.00,Snow,Light Snow,30,2013-02-06 03:09:00
10:17 PM,32.0,28.4,87,29.93,2.5,Calm,Calm,-,0.00,Snow,Light Snow,0,2013-02-06 03:17:00
10:35 PM,32.0,30.2,93,29.92,2.5,NE,4.6,-,0.00,Snow,Light Snow,50,2013-02-06 03:35:00
10:44 PM,32.0,30.2,93,29.92,3.0,NE,4.6,-,0.00,Snow,Light Snow,50,2013-02-06 03:44:00
10:52 PM,32.0,30.0,92,29.92,3.0,NE,5.8,-,0.00,Snow,Light Snow,50,2013-02-06 03:52:00
11:04 PM,33.8,30.2,87,29.92,4.0,ENE,5.8,-,0.00,Snow,Light Snow,60,2013-02-06 04:04:00
11:14 PM,33.8,30.2,87,29.92,6.0,NE,5.8,-,0.00,,Overcast,50,2013-02-06 04:14:00
11:52 PM,33.1,30.9,92,29.92,10.0,NE,4.6,-,0.00,,Overcast,40,2013-02-06 04:52:00